sensor_id;sensor_type;location;lat;lon;timestamp;pressure;altitude;pressure_sealevel;temperature;humidity
63819;BME280;49970;54.976;73.248;2022-07-29T00:01:27;99473.16;;;17.45;100.00
63819;BME280;49970;54.976;73.248;2022-07-29T00:03:53;99475.31;;;17.50;100.00
63819;BME280;49970;54.976;73.248;2022-07-29T00:06:20;99469.28;;;17.48;100.00
63819;BME280;49970;54.976;73.248;2022-07-29T00:08:47;99462.09;;;17.48;100.00
63819;BME280;49970;54.976;73.248;2022-07-29T00:11:15;99460.25;;;17.49;100.00
63819;BME280;49970;54.976;73.248;2022-07-29T00:13:41;99454.91;;;17.49;100.00
63819;BME280;49970;54.976;73.248;2022-07-29T00:16:08;99443.34;;;17.48;100.00
63819;BME280;49970;54.976;73.248;2022-07-29T00:18:44;99451.00;;;17.51;100.00
63819;BME280;49970;54.976;73.248;2022-07-29T00:21:11;99454.19;;;17.55;100.00
63819;BME280;49970;54.976;73.248;2022-07-29T00:23:37;99452.72;;;17.52;100.00
63819;BME280;49970;54.976;73.248;2022-07-29T00:26:04;99454.19;;;17.55;100.00
63819;BME280;49970;54.976;73.248;2022-07-29T00:28:34;99462.56;;;17.60;100.00
63819;BME280;49970;54.976;73.248;2022-07-29T00:31:00;99471.22;;;17.62;100.00
63819;BME280;49970;54.976;73.248;2022-07-29T00:33:37;99476.06;;;17.66;100.00
63819;BME280;49970;54.976;73.248;2022-07-29T00:36:03;99477.56;;;17.69;100.00
63819;BME280;49970;54.976;73.248;2022-07-29T00:38:30;99469.03;;;17.65;100.00
63819;BME280;49970;54.976;73.248;2022-07-29T00:41:01;99476.88;;;17.67;100.00
63819;BME280;49970;54.976;73.248;2022-07-29T00:43:27;99472.06;;;17.62;100.00
63819;BME280;49970;54.976;73.248;2022-07-29T00:45:54;99484.91;;;17.67;100.00
63819;BME280;49970;54.976;73.248;2022-07-29T00:48:30;99491.09;;;17.67;100.00
63819;BME280;49970;54.976;73.248;2022-07-29T00:50:57;99490.28;;;17.67;100.00
63819;BME280;49970;54.976;73.248;2022-07-29T00:53:25;99495.47;;;17.68;100.00
63819;BME280;49970;54.976;73.248;2022-07-29T00:55:57;99489.63;;;17.65;100.00
63819;BME280;49970;54.976;73.248;2022-07-29T00:58:24;99488.97;;;17.63;100.00
63819;BME280;49970;54.976;73.248;2022-07-29T01:00:52;99494.69;;;17.60;100.00
63819;BME280;49970;54.976;73.248;2022-07-29T01:03:19;99504.00;;;17.64;100.00
63819;BME280;49970;54.976;73.248;2022-07-29T01:05:55;99492.84;;;17.60;100.00
63819;BME280;49970;54.976;73.248;2022-07-29T01:08:23;99487.00;;;17.57;100.00
63819;BME280;49970;54.976;73.248;2022-07-29T01:10:50;99480.97;;;17.55;100.00
63819;BME280;49970;54.976;73.248;2022-07-29T01:13:17;99491.66;;;17.55;100.00
63819;BME280;49970;54.976;73.248;2022-07-29T01:15:49;99477.78;;;17.51;100.00
63819;BME280;49970;54.976;73.248;2022-07-29T01:18:34;99491.38;;;17.50;100.00
63819;BME280;49970;54.976;73.248;2022-07-29T01:21:14;99494.75;;;17.43;100.00
63819;BME280;49970;54.976;73.248;2022-07-29T01:24:14;99497.75;;;17.40;100.00
63819;BME280;49970;54.976;73.248;2022-07-29T01:26:59;99508.47;;;17.40;100.00
63819;BME280;49970;54.976;73.248;2022-07-29T01:29:55;99502.44;;;17.38;100.00
63819;BME280;49970;54.976;73.248;2022-07-29T01:32:26;99510.84;;;17.35;100.00
63819;BME280;49970;54.976;73.248;2022-07-29T01:38:19;99510.00;;;17.35;100.00
63819;BME280;49970;54.976;73.248;2022-07-29T01:40:29;99510.00;;;17.35;100.00
63819;BME280;49970;54.976;73.248;2022-07-29T01:42:58;99508.50;;;17.32;100.00
63819;BME280;49970;54.976;73.248;2022-07-29T01:45:37;99514.03;;;17.31;100.00
63819;BME280;49970;54.976;73.248;2022-07-29T01:48:20;99511.00;;;17.26;100.00
63819;BME280;49970;54.976;73.248;2022-07-29T01:51:25;99516.38;;;17.26;100.00
63819;BME280;49970;54.976;73.248;2022-07-29T01:54:18;99518.53;;;17.22;100.00
63819;BME280;49970;54.976;73.248;2022-07-29T01:56:49;99526.91;;;17.27;100.00
63819;BME280;49970;54.976;73.248;2022-07-29T01:59:17;99509.22;;;17.18;100.00
63819;BME280;49970;54.976;73.248;2022-07-29T02:01:55;99524.25;;;17.27;100.00
63819;BME280;49970;54.976;73.248;2022-07-29T02:04:34;99538.59;;;17.26;100.00
63819;BME280;49970;54.976;73.248;2022-07-29T02:07:05;99532.78;;;17.23;100.00
63819;BME280;49970;54.976;73.248;2022-07-29T02:09:35;99521.72;;;17.17;100.00
63819;BME280;49970;54.976;73.248;2022-07-29T02:12:03;99525.59;;;17.15;100.00
63819;BME280;49970;54.976;73.248;2022-07-29T02:14:36;99517.91;;;17.12;100.00
63819;BME280;49970;54.976;73.248;2022-07-29T02:17:03;99526.63;;;17.06;100.00
63819;BME280;49970;54.976;73.248;2022-07-29T02:19:42;99527.47;;;17.06;100.00
63819;BME280;49970;54.976;73.248;2022-07-29T02:22:11;99540.16;;;17.04;100.00
63819;BME280;49970;54.976;73.248;2022-07-29T02:24:38;99551.19;;;17.01;100.00
63819;BME280;49970;54.976;73.248;2022-07-29T02:27:07;99546.03;;;17.00;100.00
63819;BME280;49970;54.976;73.248;2022-07-29T02:29:35;99533.84;;;16.97;100.00
63819;BME280;49970;54.976;73.248;2022-07-29T02:32:03;99516.78;;;16.90;100.00
63819;BME280;49970;54.976;73.248;2022-07-29T02:34:32;99528.31;;;16.90;100.00
63819;BME280;49970;54.976;73.248;2022-07-29T02:37:04;99531.50;;;16.94;100.00
63819;BME280;49970;54.976;73.248;2022-07-29T02:39:31;99538.50;;;16.95;100.00
63819;BME280;49970;54.976;73.248;2022-07-29T02:42:03;99540.84;;;16.98;100.00
63819;BME280;49970;54.976;73.248;2022-07-29T02:44:34;99539.50;;;17.02;100.00
63819;BME280;49970;54.976;73.248;2022-07-29T02:47:11;99539.31;;;17.04;100.00
63819;BME280;49970;54.976;73.248;2022-07-29T02:52:26;99524.59;;;17.08;100.00
63819;BME280;49970;54.976;73.248;2022-07-29T02:55:00;99514.59;;;17.10;100.00
63819;BME280;49970;54.976;73.248;2022-07-29T02:57:32;99508.03;;;17.12;100.00
63819;BME280;49970;54.976;73.248;2022-07-29T03:00:07;99513.88;;;17.16;100.00
63819;BME280;49970;54.976;73.248;2022-07-29T03:02:40;99523.25;;;17.20;100.00
63819;BME280;49970;54.976;73.248;2022-07-29T03:05:11;99531.09;;;17.22;100.00
63819;BME280;49970;54.976;73.248;2022-07-29T03:07:56;99525.09;;;17.20;100.00
63819;BME280;49970;54.976;73.248;2022-07-29T03:10:25;99531.91;;;17.22;100.00
63819;BME280;49970;54.976;73.248;2022-07-29T03:12:52;99531.44;;;17.27;100.00
63819;BME280;49970;54.976;73.248;2022-07-29T03:15:25;99527.91;;;17.26;100.00
63819;BME280;49970;54.976;73.248;2022-07-29T03:17:52;99516.22;;;17.27;100.00
63819;BME280;49970;54.976;73.248;2022-07-29T03:20:19;99496.78;;;17.25;100.00
63819;BME280;49970;54.976;73.248;2022-07-29T03:22:46;99506.00;;;17.31;100.00
63819;BME280;49970;54.976;73.248;2022-07-29T03:25:17;99511.16;;;17.32;100.00
63819;BME280;49970;54.976;73.248;2022-07-29T03:27:49;99516.34;;;17.34;100.00
63819;BME280;49970;54.976;73.248;2022-07-29T03:30:35;99519.19;;;17.32;100.00
63819;BME280;49970;54.976;73.248;2022-07-29T03:34:26;99523.53;;;17.33;100.00
63819;BME280;49970;54.976;73.248;2022-07-29T03:38:17;99505.50;;;17.27;100.00
63819;BME280;49970;54.976;73.248;2022-07-29T03:41:51;99512.19;;;17.31;100.00
63819;BME280;49970;54.976;73.248;2022-07-29T03:44:24;99509.13;;;17.34;100.00
63819;BME280;49970;54.976;73.248;2022-07-29T03:46:59;99506.97;;;17.38;100.00
63819;BME280;49970;54.976;73.248;2022-07-29T03:49:28;99514.97;;;17.46;100.00
63819;BME280;49970;54.976;73.248;2022-07-29T03:52:00;99508.75;;;17.54;100.00
63819;BME280;49970;54.976;73.248;2022-07-29T03:54:27;99502.72;;;17.60;100.00
63819;BME280;49970;54.976;73.248;2022-07-29T03:56:54;99502.84;;;17.66;100.00
63819;BME280;49970;54.976;73.248;2022-07-29T03:59:22;99502.66;;;17.76;100.00
63819;BME280;49970;54.976;73.248;2022-07-29T04:01:48;99517.31;;;17.88;100.00
63819;BME280;49970;54.976;73.248;2022-07-29T04:04:16;99494.72;;;17.91;100.00
63819;BME280;49970;54.976;73.248;2022-07-29T04:06:44;99507.09;;;17.92;100.00
63819;BME280;49970;54.976;73.248;2022-07-29T04:09:11;99505.28;;;17.84;100.00
63819;BME280;49970;54.976;73.248;2022-07-29T04:11:41;99503.97;;;17.80;100.00
63819;BME280;49970;54.976;73.248;2022-07-29T04:14:18;99505.66;;;17.73;100.00
63819;BME280;49970;54.976;73.248;2022-07-29T04:16:44;99512.88;;;17.73;100.00
63819;BME280;49970;54.976;73.248;2022-07-29T04:19:11;99495.81;;;17.65;100.00
63819;BME280;49970;54.976;73.248;2022-07-29T04:21:41;99497.28;;;17.68;100.00
63819;BME280;49970;54.976;73.248;2022-07-29T04:24:08;99504.50;;;17.67;100.00
63819;BME280;49970;54.976;73.248;2022-07-29T04:26:34;99497.47;;;17.66;100.00
63819;BME280;49970;54.976;73.248;2022-07-29T04:29:00;99501.19;;;17.65;100.00
63819;BME280;49970;54.976;73.248;2022-07-29T04:31:27;99501.47;;;17.71;100.00
63819;BME280;49970;54.976;73.248;2022-07-29T04:33:53;99508.34;;;17.73;100.00
63819;BME280;49970;54.976;73.248;2022-07-29T04:36:19;99499.81;;;17.78;100.00
63819;BME280;49970;54.976;73.248;2022-07-29T04:39:05;99492.41;;;17.80;100.00
63819;BME280;49970;54.976;73.248;2022-07-29T04:46:37;99513.56;;;18.06;100.00
63819;BME280;49970;54.976;73.248;2022-07-29T04:49:04;99492.72;;;18.16;100.00
63819;BME280;49970;54.976;73.248;2022-07-29T04:51:41;99506.78;;;18.41;100.00
63819;BME280;49970;54.976;73.248;2022-07-29T04:54:07;99496.53;;;18.45;100.00
63819;BME280;49970;54.976;73.248;2022-07-29T04:56:38;99511.00;;;18.58;100.00
63819;BME280;49970;54.976;73.248;2022-07-29T04:59:05;99508.31;;;18.58;100.00
63819;BME280;49970;54.976;73.248;2022-07-29T05:01:31;99508.66;;;18.55;100.00
63819;BME280;49970;54.976;73.248;2022-07-29T05:03:57;99517.72;;;18.54;100.00
63819;BME280;49970;54.976;73.248;2022-07-29T05:06:23;99524.13;;;18.53;100.00
63819;BME280;49970;54.976;73.248;2022-07-29T05:09:00;99518.91;;;18.52;100.00
63819;BME280;49970;54.976;73.248;2022-07-29T05:11:37;99532.66;;;18.57;100.00
63819;BME280;49970;54.976;73.248;2022-07-29T05:14:03;99518.56;;;18.55;100.00
63819;BME280;49970;54.976;73.248;2022-07-29T05:16:29;99529.28;;;18.55;100.00
63819;BME280;49970;54.976;73.248;2022-07-29T05:19:15;99537.81;;;18.58;100.00
63819;BME280;49970;54.976;73.248;2022-07-29T05:23:07;99532.75;;;18.63;100.00
63819;BME280;49970;54.976;73.248;2022-07-29T05:26:58;99536.25;;;18.64;100.00
63819;BME280;49970;54.976;73.248;2022-07-29T05:30:49;99535.75;;;18.69;100.00
63819;BME280;49970;54.976;73.248;2022-07-29T05:34:42;99544.59;;;18.77;100.00
63819;BME280;49970;54.976;73.248;2022-07-29T05:38:33;99533.13;;;18.83;100.00
63819;BME280;49970;54.976;73.248;2022-07-29T05:46:13;99537.88;;;18.96;100.00
63819;BME280;49970;54.976;73.248;2022-07-29T06:05:22;99544.69;;;19.36;100.00
63819;BME280;49970;54.976;73.248;2022-07-29T06:09:13;99539.13;;;19.53;100.00
63819;BME280;49970;54.976;73.248;2022-07-29T06:17:17;99548.31;;;19.73;100.00
63819;BME280;49970;54.976;73.248;2022-07-29T06:25:02;99555.44;;;19.81;100.00
63819;BME280;49970;54.976;73.248;2022-07-29T06:27:29;99559.88;;;19.88;100.00
63819;BME280;49970;54.976;73.248;2022-07-29T06:29:56;99556.25;;;19.96;100.00
63819;BME280;49970;54.976;73.248;2022-07-29T06:32:23;99553.34;;;19.98;100.00
63819;BME280;49970;54.976;73.248;2022-07-29T06:35:00;99547.50;;;20.09;100.00
63819;BME280;49970;54.976;73.248;2022-07-29T06:37:30;99558.66;;;20.27;100.00
63819;BME280;49970;54.976;73.248;2022-07-29T06:39:56;99561.22;;;20.50;100.00
63819;BME280;49970;54.976;73.248;2022-07-29T06:42:42;99557.72;;;20.71;100.00
63819;BME280;49970;54.976;73.248;2022-07-29T06:45:11;99558.06;;;20.89;100.00
63819;BME280;49970;54.976;73.248;2022-07-29T06:47:44;99552.16;;;21.01;100.00
63819;BME280;49970;54.976;73.248;2022-07-29T06:50:16;99552.00;;;21.09;100.00
63819;BME280;49970;54.976;73.248;2022-07-29T06:53:03;99554.50;;;21.10;100.00
63819;BME280;49970;54.976;73.248;2022-07-29T06:55:39;99554.50;;;21.10;100.00
63819;BME280;49970;54.976;73.248;2022-07-29T06:58:31;99550.94;;;21.03;100.00
63819;BME280;49970;54.976;73.248;2022-07-29T07:02:47;99554.38;;;20.91;100.00
63819;BME280;49970;54.976;73.248;2022-07-29T07:06:18;99547.88;;;20.85;100.00
63819;BME280;49970;54.976;73.248;2022-07-29T07:08:45;99553.13;;;20.93;100.00
63819;BME280;49970;54.976;73.248;2022-07-29T07:11:11;99549.84;;;20.98;100.00
63819;BME280;49970;54.976;73.248;2022-07-29T07:13:41;99552.00;;;21.09;100.00
63819;BME280;49970;54.976;73.248;2022-07-29T07:16:07;99549.19;;;21.17;100.00
63819;BME280;49970;54.976;73.248;2022-07-29T07:18:34;99544.09;;;21.29;100.00
63819;BME280;49970;54.976;73.248;2022-07-29T07:21:00;99529.00;;;21.34;100.00
63819;BME280;49970;54.976;73.248;2022-07-29T07:23:26;99540.91;;;21.47;100.00
63819;BME280;49970;54.976;73.248;2022-07-29T07:25:53;99536.56;;;21.52;100.00
63819;BME280;49970;54.976;73.248;2022-07-29T07:28:19;99530.19;;;21.53;100.00
63819;BME280;49970;54.976;73.248;2022-07-29T07:30:46;99538.50;;;21.65;100.00
63819;BME280;49970;54.976;73.248;2022-07-29T07:33:12;99537.94;;;21.70;100.00
63819;BME280;49970;54.976;73.248;2022-07-29T07:39:48;99552.13;;;21.92;100.00
63819;BME280;49970;54.976;73.248;2022-07-29T07:42:14;99542.59;;;21.96;100.00
63819;BME280;49970;54.976;73.248;2022-07-29T07:44:41;99533.91;;;22.00;100.00
63819;BME280;49970;54.976;73.248;2022-07-29T07:47:07;99531.06;;;22.15;100.00
63819;BME280;49970;54.976;73.248;2022-07-29T07:49:34;99530.47;;;22.26;100.00
63819;BME280;49970;54.976;73.248;2022-07-29T07:52:00;99528.84;;;22.38;100.00
63819;BME280;49970;54.976;73.248;2022-07-29T07:54:37;99527.81;;;22.46;98.45
63819;BME280;49970;54.976;73.248;2022-07-29T07:57:14;99524.50;;;22.51;99.36
63819;BME280;49970;54.976;73.248;2022-07-29T07:59:50;99526.81;;;22.54;98.92
63819;BME280;49970;54.976;73.248;2022-07-29T08:02:17;99527.22;;;22.57;99.01
63819;BME280;49970;54.976;73.248;2022-07-29T08:04:53;99519.94;;;22.65;98.88
63819;BME280;49970;54.976;73.248;2022-07-29T08:07:20;99519.97;;;22.71;98.21
63819;BME280;49970;54.976;73.248;2022-07-29T08:09:47;99512.28;;;22.75;98.84
63819;BME280;49970;54.976;73.248;2022-07-29T08:12:13;99525.34;;;22.84;98.80
63819;BME280;49970;54.976;73.248;2022-07-29T08:14:39;99520.59;;;22.93;98.54
63819;BME280;49970;54.976;73.248;2022-07-29T08:17:05;99522.50;;;22.99;97.75
63819;BME280;49970;54.976;73.248;2022-07-29T08:19:32;99522.06;;;23.02;96.65
63819;BME280;49970;54.976;73.248;2022-07-29T08:22:08;99522.28;;;23.01;95.53
63819;BME280;49970;54.976;73.248;2022-07-29T08:24:34;99518.94;;;22.99;97.00
63819;BME280;49970;54.976;73.248;2022-07-29T08:27:10;99531.19;;;22.95;95.74
63819;BME280;49970;54.976;73.248;2022-07-29T08:29:37;99499.59;;;22.88;95.67
63819;BME280;49970;54.976;73.248;2022-07-29T08:32:14;99518.53;;;23.02;95.83
63819;BME280;49970;54.976;73.248;2022-07-29T08:34:45;99504.19;;;23.08;95.78
63819;BME280;49970;54.976;73.248;2022-07-29T08:37:12;99497.31;;;23.19;94.34
63819;BME280;49970;54.976;73.248;2022-07-29T08:39:38;99497.91;;;23.27;93.62
63819;BME280;49970;54.976;73.248;2022-07-29T08:42:13;99512.88;;;23.30;93.87
63819;BME280;49970;54.976;73.248;2022-07-29T08:44:39;99503.31;;;23.34;92.64
63819;BME280;49970;54.976;73.248;2022-07-29T08:47:06;99509.53;;;23.34;93.65
63819;BME280;49970;54.976;73.248;2022-07-29T08:49:34;99512.25;;;23.34;91.61
63819;BME280;49970;54.976;73.248;2022-07-29T08:52:00;99514.31;;;23.32;92.21
63819;BME280;49970;54.976;73.248;2022-07-29T08:54:46;99505.78;;;23.35;92.23
63819;BME280;49970;54.976;73.248;2022-07-29T08:57:57;99496.22;;;23.40;91.88
63819;BME280;49970;54.976;73.248;2022-07-29T09:00:29;99506.38;;;23.51;91.53
63819;BME280;49970;54.976;73.248;2022-07-29T09:02:57;99499.31;;;23.50;89.96
63819;BME280;49970;54.976;73.248;2022-07-29T09:05:31;99503.69;;;23.51;90.07
63819;BME280;49970;54.976;73.248;2022-07-29T09:08:18;99516.56;;;23.49;90.43
63819;BME280;49970;54.976;73.248;2022-07-29T09:11:25;99513.66;;;23.44;90.41
63819;BME280;49970;54.976;73.248;2022-07-29T09:14:48;99507.06;;;23.33;92.09
63819;BME280;49970;54.976;73.248;2022-07-29T09:18:48;99521.63;;;23.19;91.08
63819;BME280;49970;54.976;73.248;2022-07-29T09:22:39;99523.09;;;23.08;90.91
63819;BME280;49970;54.976;73.248;2022-07-29T09:26:31;99528.50;;;23.01;90.84
63819;BME280;49970;54.976;73.248;2022-07-29T09:30:25;99529.13;;;22.97;90.00
63819;BME280;49970;54.976;73.248;2022-07-29T09:33:57;99512.50;;;22.93;90.80
63819;BME280;49970;54.976;73.248;2022-07-29T09:37:47;99515.19;;;23.06;90.35
63819;BME280;49970;54.976;73.248;2022-07-29T09:45:28;99506.84;;;23.41;87.26
63819;BME280;49970;54.976;73.248;2022-07-29T09:49:58;99510.78;;;23.45;86.92
63819;BME280;49970;54.976;73.248;2022-07-29T09:53:36;99525.13;;;23.46;87.60
63819;BME280;49970;54.976;73.248;2022-07-29T09:56:03;99519.06;;;23.44;88.08
63819;BME280;49970;54.976;73.248;2022-07-29T09:59:05;99509.13;;;23.38;87.54
63819;BME280;49970;54.976;73.248;2022-07-29T10:02:42;99499.59;;;23.28;87.67
63819;BME280;49970;54.976;73.248;2022-07-29T10:06:28;99501.03;;;23.38;87.01
63819;BME280;49970;54.976;73.248;2022-07-29T10:09:14;99507.03;;;23.46;87.82
63819;BME280;49970;54.976;73.248;2022-07-29T10:12:54;99506.38;;;23.51;87.12
63819;BME280;49970;54.976;73.248;2022-07-29T10:20:33;99507.84;;;23.40;87.22
63819;BME280;49970;54.976;73.248;2022-07-29T10:24:27;99505.78;;;23.35;86.38
63819;BME280;49970;54.976;73.248;2022-07-29T10:28:15;99524.28;;;23.32;85.17
63819;BME280;49970;54.976;73.248;2022-07-29T10:31:05;99517.47;;;23.29;86.18
63819;BME280;49970;54.976;73.248;2022-07-29T10:34:06;99508.13;;;23.25;86.45
63819;BME280;49970;54.976;73.248;2022-07-29T10:38:39;99510.81;;;23.19;86.67
63819;BME280;49970;54.976;73.248;2022-07-29T10:47:24;99512.72;;;23.05;86.31
63819;BME280;49970;54.976;73.248;2022-07-29T10:50:02;99513.31;;;23.07;85.72
63819;BME280;49970;54.976;73.248;2022-07-29T10:56:24;99511.66;;;23.13;85.27
63819;BME280;49970;54.976;73.248;2022-07-29T11:00:26;99517.47;;;23.09;86.12
63819;BME280;49970;54.976;73.248;2022-07-29T11:05:00;99515.00;;;23.08;85.99
63819;BME280;49970;54.976;73.248;2022-07-29T11:11:46;99512.69;;;23.11;86.65
63819;BME280;49970;54.976;73.248;2022-07-29T11:15:54;99512.69;;;23.18;86.10
63819;BME280;49970;54.976;73.248;2022-07-29T11:18:21;99515.81;;;23.22;85.72
63819;BME280;49970;54.976;73.248;2022-07-29T11:20:51;99509.34;;;23.23;86.49
63819;BME280;49970;54.976;73.248;2022-07-29T11:23:27;99506.47;;;23.24;86.23
63819;BME280;49970;54.976;73.248;2022-07-29T11:26:18;99516.00;;;23.27;85.96
63819;BME280;49970;54.976;73.248;2022-07-29T11:34:26;99540.72;;;23.30;83.19
63819;BME280;49970;54.976;73.248;2022-07-29T11:53:46;99528.22;;;23.36;84.67
63819;BME280;49970;54.976;73.248;2022-07-29T11:56:34;99527.22;;;23.37;83.06
63819;BME280;49970;54.976;73.248;2022-07-29T11:59:06;99523.06;;;23.34;82.35
63819;BME280;49970;54.976;73.248;2022-07-29T12:01:36;99529.06;;;23.36;82.23
63819;BME280;49970;54.976;73.248;2022-07-29T12:04:07;99543.03;;;23.33;82.50
63819;BME280;49970;54.976;73.248;2022-07-29T12:06:37;99532.41;;;23.32;82.77
63819;BME280;49970;54.976;73.248;2022-07-29T12:09:08;99527.22;;;23.30;82.24
63819;BME280;49970;54.976;73.248;2022-07-29T12:11:37;99529.28;;;23.35;83.02
63819;BME280;49970;54.976;73.248;2022-07-29T12:14:27;99532.41;;;23.39;82.53
63819;BME280;49970;54.976;73.248;2022-07-29T12:17:04;99545.50;;;23.42;83.93
63819;BME280;49970;54.976;73.248;2022-07-29T12:19:42;99550.69;;;23.36;81.61
63819;BME280;49970;54.976;73.248;2022-07-29T12:22:30;99550.50;;;23.31;81.47
63819;BME280;49970;54.976;73.248;2022-07-29T12:26:26;99540.75;;;23.17;81.86
63819;BME280;49970;54.976;73.248;2022-07-29T12:30:17;99559.44;;;23.19;82.21
63819;BME280;49970;54.976;73.248;2022-07-29T12:34:12;99559.03;;;23.15;81.73
63819;BME280;49970;54.976;73.248;2022-07-29T12:38:02;99582.72;;;23.20;81.16
63819;BME280;49970;54.976;73.248;2022-07-29T12:41:53;99591.25;;;23.17;81.08
63819;BME280;49970;54.976;73.248;2022-07-29T12:45:52;99581.91;;;23.13;81.46
63819;BME280;49970;54.976;73.248;2022-07-29T12:48:54;99579.41;;;23.11;82.13
63819;BME280;49970;54.976;73.248;2022-07-29T12:52:47;99590.84;;;23.13;81.42
63819;BME280;49970;54.976;73.248;2022-07-29T12:56:39;99606.03;;;23.07;81.05
63819;BME280;49970;54.976;73.248;2022-07-29T13:00:29;99611.81;;;22.98;81.26
63819;BME280;49970;54.976;73.248;2022-07-29T13:04:03;99614.69;;;22.90;81.26
63819;BME280;49970;54.976;73.248;2022-07-29T13:06:50;99610.94;;;22.84;81.38
63819;BME280;49970;54.976;73.248;2022-07-29T13:09:23;99611.75;;;22.78;82.00
63819;BME280;49970;54.976;73.248;2022-07-29T13:11:52;99608.22;;;22.77;80.95
63819;BME280;49970;54.976;73.248;2022-07-29T13:14:43;99615.06;;;22.73;81.50
63819;BME280;49970;54.976;73.248;2022-07-29T13:17:19;99620.69;;;22.72;80.91
63819;BME280;49970;54.976;73.248;2022-07-29T13:19:51;99621.09;;;22.69;80.94
63819;BME280;49970;54.976;73.248;2022-07-29T13:22:22;99623.34;;;22.65;80.89
63819;BME280;49970;54.976;73.248;2022-07-29T13:24:53;99628.56;;;22.67;80.36
63819;BME280;49970;54.976;73.248;2022-07-29T13:27:25;99631.25;;;22.67;80.74
63819;BME280;49970;54.976;73.248;2022-07-29T13:29:52;99621.25;;;22.60;80.65
63819;BME280;49970;54.976;73.248;2022-07-29T13:32:29;99633.31;;;22.65;80.56
63819;BME280;49970;54.976;73.248;2022-07-29T13:34:56;99627.50;;;22.61;80.01
63819;BME280;49970;54.976;73.248;2022-07-29T13:37:34;99636.22;;;22.63;79.78
63819;BME280;49970;54.976;73.248;2022-07-29T13:40:04;99640.38;;;22.59;80.15
63819;BME280;49970;54.976;73.248;2022-07-29T13:42:32;99636.03;;;22.58;79.71
63819;BME280;49970;54.976;73.248;2022-07-29T13:44:59;99644.50;;;22.55;79.51
63819;BME280;49970;54.976;73.248;2022-07-29T13:47:26;99644.47;;;22.48;79.67
63819;BME280;49970;54.976;73.248;2022-07-29T13:49:54;99654.88;;;22.51;80.10
63819;BME280;49970;54.976;73.248;2022-07-29T13:52:21;99654.28;;;22.49;80.64
63819;BME280;49970;54.976;73.248;2022-07-29T13:54:47;99654.44;;;22.48;80.54
63819;BME280;49970;54.976;73.248;2022-07-29T13:57:16;99653.63;;;22.41;80.36
63819;BME280;49970;54.976;73.248;2022-07-29T13:59:43;99656.94;;;22.43;80.51
63819;BME280;49970;54.976;73.248;2022-07-29T14:02:10;99653.78;;;22.39;81.05
63819;BME280;49970;54.976;73.248;2022-07-29T14:04:38;99654.41;;;22.34;80.28
63819;BME280;49970;54.976;73.248;2022-07-29T14:07:06;99663.53;;;22.33;80.09
63819;BME280;49970;54.976;73.248;2022-07-29T14:09:33;99663.09;;;22.30;80.43
63819;BME280;49970;54.976;73.248;2022-07-29T14:12:02;99663.31;;;22.28;79.67
63819;BME280;49970;54.976;73.248;2022-07-29T14:14:28;99655.63;;;22.25;79.54
63819;BME280;49970;54.976;73.248;2022-07-29T14:16:55;99651.44;;;22.23;79.19
63819;BME280;49970;54.976;73.248;2022-07-29T14:19:22;99658.91;;;22.21;78.33
63819;BME280;49970;54.976;73.248;2022-07-29T14:21:48;99651.44;;;22.16;78.53
63819;BME280;49970;54.976;73.248;2022-07-29T14:24:14;99648.28;;;22.12;78.31
63819;BME280;49970;54.976;73.248;2022-07-29T14:26:41;99643.88;;;22.05;77.83
63819;BME280;49970;54.976;73.248;2022-07-29T14:29:07;99638.25;;;22.06;79.01
63819;BME280;49970;54.976;73.248;2022-07-29T14:31:33;99632.19;;;21.98;78.91
63819;BME280;49970;54.976;73.248;2022-07-29T14:33:59;99641.13;;;21.98;78.31
63819;BME280;49970;54.976;73.248;2022-07-29T14:43:57;99642.31;;;21.82;78.30
63819;BME280;49970;54.976;73.248;2022-07-29T14:46:31;99632.94;;;21.78;78.11
63819;BME280;49970;54.976;73.248;2022-07-29T14:49:00;99641.41;;;21.75;78.16
63819;BME280;49970;54.976;73.248;2022-07-29T14:51:32;99642.19;;;21.69;77.76
63819;BME280;49970;54.976;73.248;2022-07-29T14:53:59;99638.66;;;21.69;77.99
63819;BME280;49970;54.976;73.248;2022-07-29T14:56:49;99643.00;;;21.63;78.30
63819;BME280;49970;54.976;73.248;2022-07-29T15:00:12;99638.38;;;21.57;78.56
63819;BME280;49970;54.976;73.248;2022-07-29T15:03:27;99640.22;;;21.50;79.17
63819;BME280;49970;54.976;73.248;2022-07-29T15:06:04;99631.47;;;21.48;80.17
63819;BME280;49970;54.976;73.248;2022-07-29T15:08:30;99634.97;;;21.42;79.74
63819;BME280;49970;54.976;73.248;2022-07-29T15:10:57;99643.63;;;21.37;79.47
63819;BME280;49970;54.976;73.248;2022-07-29T15:13:30;99641.31;;;21.34;79.96
63819;BME280;49970;54.976;73.248;2022-07-29T15:15:56;99644.56;;;21.29;79.47
63819;BME280;49970;54.976;73.248;2022-07-29T15:18:22;99641.00;;;21.22;80.04
63819;BME280;49970;54.976;73.248;2022-07-29T15:20:49;99649.06;;;21.22;79.75
63819;BME280;49970;54.976;73.248;2022-07-29T15:23:25;99656.06;;;21.17;80.08
63819;BME280;49970;54.976;73.248;2022-07-29T15:25:51;99643.19;;;21.12;80.06
63819;BME280;49970;54.976;73.248;2022-07-29T15:28:17;99662.03;;;21.12;79.89
63819;BME280;49970;54.976;73.248;2022-07-29T15:30:44;99665.94;;;21.09;80.00
63819;BME280;49970;54.976;73.248;2022-07-29T15:33:30;99666.91;;;21.02;79.12
63819;BME280;49970;54.976;73.248;2022-07-29T15:36:38;99667.84;;;20.94;79.01
63819;BME280;49970;54.976;73.248;2022-07-29T15:40:30;99666.72;;;20.82;79.71
63819;BME280;49970;54.976;73.248;2022-07-29T15:44:21;99680.09;;;20.75;80.41
63819;BME280;49970;54.976;73.248;2022-07-29T15:52:56;99704.06;;;20.55;80.54
63819;BME280;49970;54.976;73.248;2022-07-29T15:56:28;99703.00;;;20.50;80.95